createdAt,value
2022-11-27T00:01:58.813Z,7.78
2022-11-27T00:07:00.254Z,8.05
2022-11-27T00:12:01.637Z,8.80
2022-11-27T00:17:03.003Z,8.63
2022-11-27T00:22:04.475Z,8.13
2022-11-27T00:27:05.920Z,8.75
2022-11-27T00:32:08.103Z,8.40
2022-11-27T00:37:09.511Z,8.47
2022-11-27T00:42:11.003Z,8.93
2022-11-27T00:47:12.387Z,6.97
2022-11-27T00:52:13.864Z,8.02
2022-11-27T00:57:15.250Z,7.78
2022-11-27T01:02:16.684Z,7.57
2022-11-27T01:07:18.109Z,7.20
2022-11-27T01:12:19.544Z,7.72
2022-11-27T01:17:20.939Z,7.47
2022-11-27T01:22:22.640Z,7.60
2022-11-27T01:27:24.066Z,7.78
2022-11-27T01:32:26.119Z,7.00
2022-11-27T01:37:27.622Z,6.40
2022-11-27T01:42:28.981Z,6.65
2022-11-27T01:47:43.633Z,6.78
2022-11-27T01:52:50.126Z,6.25
2022-11-27T01:58:02.142Z,7.13
2022-11-27T02:03:04.324Z,6.15
2022-11-27T02:08:12.094Z,6.03
2022-11-27T02:13:23.351Z,5.90
2022-11-27T02:18:55.792Z,6.57
2022-11-27T02:24:46.795Z,6.82
2022-11-27T02:29:54.193Z,6.15
2022-11-27T02:35:06.371Z,6.00
2022-11-27T02:40:13.842Z,6.93
2022-11-27T02:45:21.450Z,6.93
2022-11-27T02:50:26.028Z,6.10
2022-11-27T02:55:32.263Z,6.90
2022-11-27T03:00:35.371Z,6.32
2022-11-27T03:10:51.959Z,6.68
2022-11-27T03:16:02.507Z,6.20
2022-11-27T03:21:28.452Z,6.38
2022-11-27T03:26:30.808Z,6.07
2022-11-27T03:31:32.807Z,6.27
2022-11-27T03:36:34.268Z,5.75
2022-11-27T03:42:02.494Z,6.78
2022-11-27T03:47:41.875Z,5.32
2022-11-27T03:52:57.319Z,6.38
2022-11-27T03:58:08.545Z,6.28
2022-11-27T04:03:11.587Z,5.22
2022-11-27T04:08:12.971Z,5.10
2022-11-27T04:13:14.741Z,6.65
2022-11-27T04:18:16.114Z,6.30
2022-11-27T04:23:17.575Z,6.47
2022-11-27T04:28:19.083Z,6.53
2022-11-27T04:33:20.940Z,5.82
2022-11-27T04:38:23.586Z,6.13
2022-11-27T04:43:25.023Z,5.05
2022-11-27T04:48:26.391Z,5.63
2022-11-27T04:53:27.854Z,5.78
2022-11-27T04:58:29.247Z,5.70
2022-11-27T05:03:30.691Z,4.63
2022-11-27T05:08:33.290Z,4.82
2022-11-27T05:13:35.127Z,4.63
2022-11-27T05:18:36.595Z,4.18
2022-11-27T05:23:37.958Z,4.13
2022-11-27T05:28:39.320Z,4.97
2022-11-27T05:33:40.694Z,3.97
2022-11-27T05:38:42.118Z,3.60
2022-11-27T05:43:43.558Z,4.13
2022-11-27T05:48:44.922Z,4.18
2022-11-27T05:53:46.366Z,3.92
2022-11-27T05:58:48.545Z,4.38
2022-11-27T06:03:50.026Z,5.03
2022-11-27T06:08:51.518Z,4.22
2022-11-27T06:13:52.922Z,4.80
2022-11-27T06:18:55.961Z,4.43
2022-11-27T06:23:57.396Z,3.95
2022-11-27T06:29:00.975Z,3.83
2022-11-27T06:34:03.714Z,4.43
2022-11-27T06:39:06.582Z,4.57
2022-11-27T06:44:09.367Z,3.30
2022-11-27T06:49:12.746Z,3.00
2022-11-27T06:54:14.151Z,3.20
2022-11-27T06:59:16.265Z,2.90
2022-11-27T07:04:17.708Z,2.95
2022-11-27T07:09:19.086Z,2.90
2022-11-27T07:14:20.462Z,3.25
2022-11-27T07:19:21.825Z,3.03
2022-11-27T07:24:23.282Z,2.88
2022-11-27T07:29:24.707Z,2.67
2022-11-27T07:34:26.059Z,2.90
2022-11-27T07:39:54.116Z,3.00
2022-11-27T07:44:49.106Z,2.60
2022-11-27T07:49:50.499Z,3.00
2022-11-27T07:54:51.904Z,2.80
2022-11-27T07:59:53.963Z,24.65
2022-11-27T08:04:55.417Z,39.95
2022-11-27T08:10:00.295Z,5.20
2022-11-27T08:15:04.471Z,4.60
2022-11-27T08:20:07.171Z,3.83
2022-11-27T08:25:09.092Z,4.10
2022-11-27T08:30:10.680Z,4.22
2022-11-27T08:35:12.214Z,4.43
2022-11-27T08:40:14.021Z,5.13
2022-11-27T08:45:15.536Z,5.20
2022-11-27T08:50:17.064Z,3.60
2022-11-27T08:55:18.438Z,3.55
2022-11-27T09:00:24.929Z,4.13
2022-11-27T09:05:29.934Z,4.13
2022-11-27T09:10:31.336Z,3.67
2022-11-27T09:15:32.742Z,4.82
2022-11-27T09:20:34.190Z,5.40
2022-11-27T09:25:39.041Z,5.05
2022-11-27T09:30:40.442Z,5.00
2022-11-27T09:35:41.910Z,5.32
2022-11-27T09:40:52.106Z,5.72
2022-11-27T09:45:58.501Z,4.95
2022-11-27T09:51:02.361Z,4.72
2022-11-27T09:56:06.792Z,6.05
2022-11-27T10:01:16.174Z,5.75
2022-11-27T10:06:23.113Z,6.45
2022-11-27T10:11:33.947Z,5.68
2022-11-27T10:16:45.648Z,6.03
2022-11-27T10:21:55.455Z,6.10
2022-11-27T10:26:59.179Z,5.97
2022-11-27T10:32:52.971Z,6.38
2022-11-27T10:38:06.430Z,5.80
2022-11-27T10:43:18.919Z,5.90
2022-11-27T10:48:21.028Z,5.50
2022-11-27T10:53:37.190Z,5.72
2022-11-27T10:58:46.996Z,4.95
2022-11-27T11:03:48.747Z,5.00
2022-11-27T11:09:24.224Z,4.85
2022-11-27T11:14:26.954Z,5.30
2022-11-27T11:19:38.934Z,4.82
2022-11-27T11:24:46.243Z,5.35
2022-11-27T11:29:55.206Z,5.35
2022-11-27T11:35:01.493Z,4.30
2022-11-27T11:40:09.777Z,4.07
2022-11-27T11:45:13.354Z,4.07
2022-11-27T11:50:25.336Z,4.13
2022-11-27T11:55:35.483Z,3.92
2022-11-27T12:01:26.136Z,2.63
2022-11-27T12:06:24.427Z,4.57
2022-11-27T12:11:42.333Z,5.03
2022-11-27T12:17:01.478Z,4.35
2022-11-27T12:22:15.018Z,5.90
2022-11-27T12:27:16.331Z,5.13
2022-11-27T12:32:52.042Z,6.32
2022-11-27T12:38:22.296Z,6.30
2022-11-27T12:43:24.992Z,6.18
2022-11-27T12:48:42.351Z,6.43
2022-11-27T12:53:49.227Z,6.32
2022-11-27T12:58:59.047Z,4.47
2022-11-27T13:04:29.120Z,3.30
2022-11-27T13:09:45.585Z,3.15
2022-11-27T13:14:55.044Z,3.28
2022-11-27T13:19:56.791Z,2.85
2022-11-27T13:25:01.644Z,2.88
2022-11-27T13:30:06.802Z,2.92
2022-11-27T13:35:21.802Z,2.75
2022-11-27T13:40:31.559Z,3.15
2022-11-27T13:45:36.905Z,2.88
2022-11-27T13:50:45.835Z,3.97
2022-11-27T13:55:56.646Z,3.40
2022-11-27T14:00:58.765Z,3.50
2022-11-27T14:06:00.216Z,2.87
2022-11-27T14:11:06.434Z,2.80
2022-11-27T14:16:30.248Z,3.42
2022-11-27T14:21:42.697Z,3.28
2022-11-27T14:26:44.234Z,3.20
2022-11-27T14:31:45.724Z,3.38
2022-11-27T14:36:52.040Z,4.03
2022-11-27T14:42:01.556Z,3.45
2022-11-27T14:47:06.568Z,4.00
2022-11-27T14:52:14.726Z,3.53
2022-11-27T14:57:35.153Z,3.50
2022-11-27T15:02:36.812Z,4.32
2022-11-27T15:07:45.400Z,4.00
2022-11-27T15:12:49.721Z,4.40
2022-11-27T15:18:17.923Z,4.63
2022-11-27T15:23:27.751Z,4.65
2022-11-27T15:28:32.633Z,4.93
2022-11-27T15:33:34.233Z,4.95
2022-11-27T15:38:35.624Z,4.40
2022-11-27T15:43:37.014Z,4.53
2022-11-27T15:48:39.314Z,4.80
2022-11-27T15:53:40.876Z,4.07
2022-11-27T15:58:43.292Z,4.15
2022-11-27T16:03:44.770Z,3.88
2022-11-27T16:08:46.142Z,4.25
2022-11-27T16:13:47.649Z,4.75
2022-11-27T16:18:49.083Z,4.95
2022-11-27T16:23:50.503Z,4.60
2022-11-27T16:28:52.047Z,5.40
2022-11-27T16:33:54.009Z,5.03
2022-11-27T16:38:58.356Z,5.72
2022-11-27T16:43:59.765Z,5.28
2022-11-27T16:49:01.344Z,5.35
2022-11-27T16:54:06.224Z,5.28
2022-11-27T16:59:10.571Z,5.85
2022-11-27T17:04:18.648Z,5.68
2022-11-27T17:09:22.424Z,6.13
2022-11-27T17:14:26.684Z,5.60
2022-11-27T17:19:29.942Z,5.55
2022-11-27T17:24:31.709Z,5.22
2022-11-27T17:29:37.642Z,6.40
2022-11-27T17:34:39.942Z,5.85
2022-11-27T17:39:43.461Z,5.45
2022-11-27T17:44:45.695Z,5.30
2022-11-27T17:49:47.082Z,5.53
2022-11-27T17:54:48.562Z,4.55
2022-11-27T17:59:50.258Z,5.20
2022-11-27T18:04:52.488Z,4.90
2022-11-27T18:10:00.627Z,5.53
2022-11-27T18:27:35.914Z,6.32
2022-11-27T18:32:38.181Z,6.20
2022-11-27T18:37:39.598Z,8.05
2022-11-27T18:42:40.963Z,7.97
2022-11-27T18:47:42.339Z,7.32
2022-11-27T18:52:43.730Z,7.90
2022-11-27T18:57:46.235Z,7.68
2022-11-27T19:02:49.977Z,9.03
2022-11-27T19:07:53.488Z,7.50
2022-11-27T19:12:59.080Z,6.93
2022-11-27T19:18:01.160Z,6.57
2022-11-27T19:28:45.574Z,6.82
2022-11-27T19:34:15.992Z,7.10
2022-11-27T19:39:24.151Z,6.82
2022-11-27T19:44:27.861Z,5.68
2022-11-27T19:49:35.611Z,5.53
2022-11-27T19:54:37.349Z,6.88
2022-11-27T19:59:40.111Z,6.22
2022-11-27T20:04:43.850Z,6.82
2022-11-27T20:09:45.585Z,7.80
2022-11-27T20:14:47.031Z,7.50
2022-11-27T20:19:48.742Z,7.82
2022-11-27T20:25:11.640Z,8.77
2022-11-27T20:30:12.747Z,9.07
2022-11-27T20:35:15.128Z,7.80
2022-11-27T20:40:16.927Z,7.30
2022-11-27T20:45:20.521Z,7.70
2022-11-27T20:50:23.463Z,7.43
2022-11-27T20:55:25.028Z,6.97
2022-11-27T21:00:26.914Z,7.57
2022-11-27T21:05:28.331Z,7.45
2022-11-27T21:10:29.873Z,7.78
2022-11-27T21:15:31.307Z,6.80
2022-11-27T21:20:32.847Z,7.47
2022-11-27T21:25:34.336Z,8.15
2022-11-27T21:30:35.843Z,8.00
2022-11-27T21:35:40.308Z,8.63
2022-11-27T21:40:42.300Z,10.25
2022-11-27T21:45:43.733Z,9.70
2022-11-27T21:50:45.252Z,11.70
2022-11-27T21:55:46.691Z,9.55
2022-11-27T22:00:51.560Z,10.82
2022-11-27T22:06:01.483Z,9.75
2022-11-27T22:11:07.489Z,9.50
2022-11-27T22:16:15.427Z,9.85
2022-11-27T22:21:17.558Z,10.82
2022-11-27T22:26:21.039Z,9.05
2022-11-27T22:31:30.165Z,8.85
2022-11-27T22:36:35.478Z,10.50
2022-11-27T22:41:40.417Z,9.13
2022-11-27T22:46:43.401Z,10.57
2022-11-27T22:51:46.114Z,10.90
2022-11-27T22:56:48.912Z,10.52
2022-11-27T23:01:50.284Z,9.02
2022-11-27T23:06:51.853Z,8.65
2022-11-27T23:11:53.407Z,8.10
2022-11-27T23:16:55.968Z,8.48
2022-11-27T23:21:57.517Z,9.88
2022-11-27T23:26:58.891Z,10.50
2022-11-27T23:32:00.997Z,10.55
2022-11-27T23:37:02.620Z,9.53
2022-11-27T23:42:04.437Z,9.63
2022-11-27T23:47:06.271Z,10.05
2022-11-27T23:52:09.344Z,9.65
2022-11-27T23:57:13.316Z,9.23
